createdAt,value
2023-03-08T00:02:18.527Z,94365.58
2023-03-08T00:04:45.388Z,94370.14
2023-03-08T00:07:12.456Z,94374.14
2023-03-08T00:09:39.466Z,94369.55
2023-03-08T00:12:07.550Z,94376.82
2023-03-08T00:14:34.431Z,94378.25
2023-03-08T00:17:02.600Z,94384.73
2023-03-08T00:19:29.570Z,94380.89
2023-03-08T00:21:56.971Z,94380.40
2023-03-08T00:24:26.198Z,94382.67
2023-03-08T00:26:53.075Z,94383.76
2023-03-08T00:29:19.924Z,94382.36
2023-03-08T00:31:46.785Z,94381.84
2023-03-08T00:34:13.679Z,94380.97
2023-03-08T00:36:41.186Z,94384.09
2023-03-08T00:39:09.424Z,94376.89
2023-03-08T00:41:37.557Z,94386.42
2023-03-08T00:44:04.734Z,94369.42
2023-03-08T00:46:31.736Z,94364.34
2023-03-08T00:48:58.831Z,94375.11
2023-03-08T00:51:26.322Z,94358.61
2023-03-08T00:53:53.575Z,94366.07
2023-03-08T00:56:21.405Z,94379.54
2023-03-08T00:58:48.259Z,94377.73
2023-03-08T01:01:18.141Z,94373.45
2023-03-08T01:03:47.386Z,94386.30
2023-03-08T01:06:15.922Z,94387.45
2023-03-08T01:08:42.933Z,94388.60
2023-03-08T01:11:37.290Z,94388.13
2023-03-08T01:14:06.275Z,94387.28
2023-03-08T01:16:35.402Z,94383.91
2023-03-08T01:19:04.496Z,94383.14
2023-03-08T01:21:32.308Z,94381.99
2023-03-08T01:23:59.358Z,94375.63
2023-03-08T01:26:28.417Z,94383.98
2023-03-08T01:28:56.546Z,94381.30
2023-03-08T01:31:33.749Z,94373.05
2023-03-08T01:34:00.896Z,94382.09
2023-03-08T01:36:28.407Z,94391.77
2023-03-08T01:38:55.284Z,94384.48
2023-03-08T01:41:28.925Z,94393.45
2023-03-08T01:43:55.835Z,94389.21
2023-03-08T01:46:30.833Z,94391.83
2023-03-08T01:49:19.468Z,94390.85
2023-03-08T01:51:49.214Z,94384.90
2023-03-08T01:54:37.367Z,94391.83
2023-03-08T01:57:12.074Z,94390.77
2023-03-08T01:59:39.730Z,94393.98
2023-03-08T02:02:07.053Z,94395.73
2023-03-08T02:04:34.823Z,94387.19
2023-03-08T02:07:01.798Z,94385.75
2023-03-08T02:09:29.062Z,94392.67
2023-03-08T02:12:01.783Z,94389.91
2023-03-08T02:14:30.089Z,94382.97
2023-03-08T02:16:57.046Z,94379.48
2023-03-08T02:19:33.357Z,94385.79
2023-03-08T02:22:08.281Z,94386.13
2023-03-08T02:24:35.058Z,94386.80
2023-03-08T02:27:07.165Z,94384.23
2023-03-08T02:29:34.435Z,94382.70
2023-03-08T02:32:01.475Z,94385.96
2023-03-08T02:34:29.712Z,94390.73
2023-03-08T02:36:57.809Z,94389.74
2023-03-08T02:39:24.862Z,94400.06
2023-03-08T02:41:55.081Z,94399.88
2023-03-08T02:44:21.938Z,94402.48
2023-03-08T02:46:49.086Z,94410.48
2023-03-08T02:49:15.997Z,94414.55
2023-03-08T02:51:42.932Z,94416.96
2023-03-08T02:54:09.853Z,94399.48
2023-03-08T02:56:37.484Z,94402.61
2023-03-08T02:59:05.681Z,94409.55
2023-03-08T03:01:32.640Z,94409.80
2023-03-08T03:03:59.753Z,94413.27
2023-03-08T03:06:26.612Z,94414.32
2023-03-08T03:08:55.619Z,94410.81
2023-03-08T03:11:23.199Z,94409.37
2023-03-08T03:14:01.366Z,94417.80
2023-03-08T03:16:32.810Z,94418.21
2023-03-08T03:19:00.699Z,94411.41
2023-03-08T03:21:27.797Z,94420.12
2023-03-08T03:23:55.560Z,94420.45
2023-03-08T03:26:27.185Z,94423.02
2023-03-08T03:28:57.727Z,94430.61
2023-03-08T03:31:26.581Z,94427.08
2023-03-08T03:33:53.652Z,94430.17
2023-03-08T03:36:23.766Z,94434.77
2023-03-08T03:38:51.597Z,94443.06
2023-03-08T03:41:21.720Z,94443.46
2023-03-08T03:43:51.367Z,94439.98
2023-03-08T03:46:20.625Z,94438.34
2023-03-08T03:48:49.592Z,94445.08
2023-03-08T03:51:20.820Z,94442.21
2023-03-08T03:53:50.863Z,94447.91
2023-03-08T03:56:23.820Z,94446.00
2023-03-08T04:15:13.123Z,94454.17
2023-03-08T04:17:39.948Z,94454.58
2023-03-08T04:20:07.516Z,94454.49
2023-03-08T04:22:37.426Z,94454.28
2023-03-08T04:25:10.415Z,94455.05
2023-03-08T04:27:45.426Z,94463.57
2023-03-08T04:30:13.484Z,94462.92
2023-03-08T04:32:40.485Z,94460.79
2023-03-08T04:35:07.833Z,94462.21
2023-03-08T04:37:37.141Z,94459.45
2023-03-08T04:40:09.461Z,94460.17
2023-03-08T04:42:41.090Z,94454.95
2023-03-08T04:45:09.034Z,94455.86
2023-03-08T04:47:36.232Z,94454.41
2023-03-08T04:50:03.519Z,94458.05
2023-03-08T04:52:30.429Z,94455.05
2023-03-08T04:54:58.025Z,94459.71
2023-03-08T04:57:26.287Z,94469.10
2023-03-08T04:59:55.423Z,94468.27
2023-03-08T05:02:23.695Z,94466.13
2023-03-08T05:04:51.061Z,94470.34
2023-03-08T05:07:18.161Z,94469.39
2023-03-08T05:09:45.430Z,94474.09
2023-03-08T05:12:13.299Z,94478.91
2023-03-08T05:14:59.852Z,94486.90
2023-03-08T05:17:27.137Z,94493.16
2023-03-08T05:19:54.015Z,94490.24
2023-03-08T05:22:24.918Z,94490.27
2023-03-08T05:24:54.884Z,94496.35
2023-03-08T05:27:21.778Z,94502.10
2023-03-08T05:29:51.900Z,94507.64
2023-03-08T05:32:18.893Z,94513.14
2023-03-08T05:34:46.100Z,94513.42
2023-03-08T05:37:17.080Z,94520.09
2023-03-08T05:39:44.187Z,94520.02
2023-03-08T05:42:20.531Z,94517.30
2023-03-08T05:44:47.596Z,94519.60
2023-03-08T05:47:18.114Z,94524.02
2023-03-08T05:49:44.910Z,94528.73
2023-03-08T05:52:11.920Z,94536.80
2023-03-08T05:54:39.722Z,94536.55
2023-03-08T05:57:10.268Z,94537.38
2023-03-08T05:59:37.509Z,94536.70
2023-03-08T06:02:05.022Z,94535.58
2023-03-08T06:04:52.157Z,94534.77
2023-03-08T06:07:21.172Z,94537.60
2023-03-08T06:09:54.847Z,94545.85
2023-03-08T06:12:22.980Z,94539.19
2023-03-08T06:14:52.414Z,94542.44
2023-03-08T06:17:20.113Z,94542.16
2023-03-08T06:19:49.102Z,94544.98
2023-03-08T06:22:17.305Z,94548.48
2023-03-08T06:24:44.886Z,94552.50
2023-03-08T06:27:12.342Z,94548.25
2023-03-08T06:29:39.756Z,94546.31
2023-03-08T06:32:07.452Z,94548.02
2023-03-08T06:34:35.834Z,94553.33
2023-03-08T06:37:02.922Z,94555.66
2023-03-08T06:39:31.699Z,94562.73
2023-03-08T06:41:59.178Z,94564.30
2023-03-08T06:44:26.200Z,94564.11
2023-03-08T06:46:53.343Z,94570.70
2023-03-08T06:49:21.588Z,94575.80
2023-03-08T06:51:48.607Z,94574.98
2023-03-08T06:54:17.685Z,94579.40
2023-03-08T06:56:47.769Z,94585.77
2023-03-08T06:59:14.663Z,94586.90
2023-03-08T07:01:41.934Z,94591.30
2023-03-08T07:04:08.743Z,94591.98
2023-03-08T07:06:35.816Z,94596.05
2023-03-08T07:09:02.800Z,94598.61
2023-03-08T07:11:31.405Z,94602.63
2023-03-08T07:13:59.374Z,94604.73
2023-03-08T07:16:27.233Z,94601.51
2023-03-08T07:18:54.143Z,94602.52
2023-03-08T07:21:40.988Z,94606.67
2023-03-08T07:24:11.581Z,94607.58
2023-03-08T07:26:38.680Z,94604.20
2023-03-08T07:29:05.888Z,94604.98
2023-03-08T07:31:36.269Z,94604.09
2023-03-08T07:34:04.352Z,94606.73
2023-03-08T07:36:31.158Z,94608.39
2023-03-08T07:39:01.116Z,94607.91
2023-03-08T07:41:30.610Z,94609.10
2023-03-08T07:43:57.507Z,94608.31
2023-03-08T07:46:26.431Z,94610.27
2023-03-08T07:48:55.357Z,94608.83
2023-03-08T07:51:22.696Z,94609.31
2023-03-08T07:53:49.521Z,94606.67
2023-03-08T07:56:16.334Z,94612.89
2023-03-08T07:58:43.161Z,94611.38
2023-03-08T08:01:11.744Z,94611.88
2023-03-08T08:03:39.462Z,94608.72
2023-03-08T08:06:07.208Z,94610.50
2023-03-08T08:08:34.101Z,94607.27
2023-03-08T08:11:01.356Z,94609.56
2023-03-08T08:13:28.239Z,94611.75
2023-03-08T08:16:02.804Z,94613.83
2023-03-08T08:18:29.675Z,94615.73
2023-03-08T08:21:07.805Z,94621.89
2023-03-08T08:23:35.304Z,94618.85
2023-03-08T08:26:07.350Z,94619.08
2023-03-08T08:28:34.716Z,94622.09
2023-03-08T08:31:05.074Z,94623.67
2023-03-08T08:33:33.224Z,94625.52
2023-03-08T08:36:00.773Z,94626.17
2023-03-08T08:38:27.582Z,94622.67
2023-03-08T08:40:54.377Z,94619.90
2023-03-08T08:43:21.200Z,94622.52
2023-03-08T08:45:53.318Z,94623.15
2023-03-08T08:48:20.182Z,94617.86
2023-03-08T08:50:47.125Z,94617.44
2023-03-08T08:53:14.147Z,94616.15
2023-03-08T08:55:42.181Z,94617.52
2023-03-08T08:58:10.013Z,94618.89
2023-03-08T09:00:37.034Z,94618.13
2023-03-08T09:03:05.694Z,94618.55
2023-03-08T09:05:33.996Z,94618.98
2023-03-08T09:08:01.701Z,94620.23
2023-03-08T09:10:30.375Z,94619.45
2023-03-08T09:12:59.099Z,94621.79
2023-03-08T09:15:26.984Z,94620.67
2023-03-08T09:17:54.201Z,94620.42
2023-03-08T09:20:23.307Z,94614.40
2023-03-08T09:22:50.434Z,94614.43
2023-03-08T09:25:19.703Z,94611.66
2023-03-08T09:27:48.851Z,94610.66
2023-03-08T09:30:17.613Z,94608.36
2023-03-08T09:32:44.595Z,94608.09
2023-03-08T09:35:11.495Z,94602.13
2023-03-08T09:37:38.343Z,94603.08
2023-03-08T09:40:09.742Z,94599.59
2023-03-08T09:42:38.353Z,94601.09
2023-03-08T09:45:13.997Z,94600.09
2023-03-08T09:48:08.515Z,94596.17
2023-03-08T09:50:51.205Z,94598.50
2023-03-08T09:53:26.915Z,94598.84
2023-03-08T09:56:01.979Z,94591.60
2023-03-08T09:58:38.793Z,94588.13
2023-03-08T10:01:24.124Z,94585.00
2023-03-08T10:04:14.411Z,94579.92
2023-03-08T10:07:18.533Z,94575.54
2023-03-08T10:09:53.188Z,94578.67
2023-03-08T10:12:51.591Z,94577.15
2023-03-08T10:15:22.408Z,94576.05
2023-03-08T10:18:30.982Z,94577.15
2023-03-08T10:21:01.215Z,94570.80
2023-03-08T10:23:35.117Z,94566.34
2023-03-08T10:26:02.972Z,94564.85
2023-03-08T10:28:29.861Z,94567.55
2023-03-08T10:31:01.967Z,94566.84
2023-03-08T10:33:34.525Z,94562.91
2023-03-08T10:36:04.689Z,94559.73
2023-03-08T10:38:34.126Z,94557.58
2023-03-08T10:41:16.062Z,94553.99
2023-03-08T10:43:52.152Z,94552.00
2023-03-08T10:46:21.699Z,94548.89
2023-03-08T10:48:49.233Z,94547.95
2023-03-08T10:51:28.410Z,94543.85
2023-03-08T10:54:00.617Z,94537.71
2023-03-08T10:56:45.037Z,94536.75
2023-03-08T10:59:39.273Z,94535.34
2023-03-08T11:02:15.132Z,94536.19
2023-03-08T11:04:56.886Z,94533.10
2023-03-08T11:07:28.071Z,94527.00
2023-03-08T11:10:18.069Z,94526.38
2023-03-08T11:12:46.133Z,94522.53
2023-03-08T11:15:18.829Z,94516.09
2023-03-08T11:18:24.460Z,94512.33
2023-03-08T11:21:14.516Z,94505.73
2023-03-08T11:23:46.904Z,94500.95
2023-03-08T11:26:23.800Z,94499.88
2023-03-08T11:29:10.404Z,94492.88
2023-03-08T11:31:58.794Z,94485.84
2023-03-08T11:34:46.372Z,94481.06
2023-03-08T11:37:39.925Z,94478.50
2023-03-08T11:40:19.373Z,94470.40
2023-03-08T11:42:56.666Z,94467.69
2023-03-08T11:45:34.450Z,94465.37
2023-03-08T11:48:27.109Z,94462.27
2023-03-08T11:51:06.420Z,94457.05
2023-03-08T11:53:44.143Z,94455.88
2023-03-08T11:56:27.121Z,94456.31
2023-03-08T11:59:02.519Z,94453.09
2023-03-08T12:01:45.906Z,94449.29
2023-03-08T12:04:19.270Z,94446.55
2023-03-08T12:06:47.419Z,94445.95
2023-03-08T12:09:22.970Z,94444.47
2023-03-08T12:11:53.495Z,94441.70
2023-03-08T12:14:30.272Z,94440.33
2023-03-08T12:17:10.184Z,94436.12
2023-03-08T12:19:45.769Z,94434.58
2023-03-08T12:22:34.093Z,94434.96
2023-03-08T12:25:17.992Z,94436.29
2023-03-08T12:27:49.323Z,94433.42
2023-03-08T12:30:31.237Z,94430.80
2023-03-08T12:33:00.358Z,94434.35
2023-03-08T12:35:34.262Z,94436.36
2023-03-08T12:38:42.501Z,94433.69
2023-03-08T12:41:27.753Z,94429.30
2023-03-08T12:44:01.441Z,94426.30
2023-03-08T12:46:28.779Z,94425.04
2023-03-08T12:48:56.469Z,94422.65
2023-03-08T12:51:33.974Z,94420.58
2023-03-08T12:54:05.182Z,94419.46
2023-03-08T12:56:37.390Z,94419.22
2023-03-08T12:59:36.039Z,94417.70
2023-03-08T13:02:23.085Z,94416.95
2023-03-08T13:04:50.030Z,94419.52
2023-03-08T13:07:28.688Z,94417.56
2023-03-08T13:10:20.169Z,94413.88
2023-03-08T13:13:26.753Z,94411.91
2023-03-08T13:16:24.603Z,94409.58
2023-03-08T13:19:16.696Z,94407.34
2023-03-08T13:22:07.994Z,94398.74
2023-03-08T13:24:56.981Z,94397.61
2023-03-08T13:27:32.599Z,94394.13
2023-03-08T13:30:31.367Z,94392.94
2023-03-08T13:32:59.278Z,94395.29
2023-03-08T13:35:26.732Z,94400.72
2023-03-08T13:37:56.685Z,94402.58
2023-03-08T13:40:24.180Z,94403.71
2023-03-08T13:42:58.142Z,94397.14
2023-03-08T13:45:25.796Z,94399.79
2023-03-08T13:47:55.787Z,94395.29
2023-03-08T13:50:43.419Z,94391.39
2023-03-08T13:53:17.501Z,94394.30
2023-03-08T13:55:46.812Z,94392.85
2023-03-08T13:58:35.181Z,94390.73
2023-03-08T14:01:04.435Z,94391.14
2023-03-08T14:03:33.086Z,94391.80
2023-03-08T14:06:00.122Z,94388.16
2023-03-08T14:08:28.259Z,94382.84
2023-03-08T14:11:06.637Z,94381.79
2023-03-08T14:13:38.587Z,94383.10
2023-03-08T14:16:07.782Z,94387.48
2023-03-08T14:18:40.652Z,94387.58
2023-03-08T14:21:19.277Z,94388.61
2023-03-08T14:23:55.867Z,94383.89
2023-03-08T14:26:38.892Z,94383.64
2023-03-08T14:29:23.670Z,94391.52
2023-03-08T14:32:01.463Z,94391.39
2023-03-08T14:34:39.268Z,94391.52
2023-03-08T14:37:16.613Z,94386.93
2023-03-08T14:39:46.261Z,94381.58
2023-03-08T14:42:25.626Z,94386.92
2023-03-08T14:44:57.993Z,94390.14
2023-03-08T14:47:33.502Z,94388.79
2023-03-08T14:50:07.038Z,94390.59
2023-03-08T14:52:53.595Z,94392.58
2023-03-08T14:55:25.430Z,94393.46
2023-03-08T14:57:56.429Z,94398.34
2023-03-08T15:03:10.812Z,94397.58
2023-03-08T15:08:21.244Z,94392.84
2023-03-08T15:10:49.298Z,94397.73
2023-03-08T15:13:21.873Z,94392.20
2023-03-08T15:15:50.080Z,94394.75
2023-03-08T15:18:17.348Z,94395.23
2023-03-08T15:20:49.397Z,94394.40
2023-03-08T15:23:24.142Z,94393.73
2023-03-08T15:25:51.258Z,94396.70
2023-03-08T15:28:20.561Z,94399.73
2023-03-08T15:30:47.719Z,94396.27
2023-03-08T15:33:14.735Z,94397.75
2023-03-08T15:35:42.177Z,94401.80
2023-03-08T15:38:13.211Z,94401.28
2023-03-08T15:40:41.440Z,94402.07
2023-03-08T15:43:08.906Z,94403.87
2023-03-08T15:45:36.619Z,94405.09
2023-03-08T15:48:11.668Z,94405.30
2023-03-08T15:50:39.760Z,94404.14
2023-03-08T15:53:07.062Z,94401.85
2023-03-08T15:55:34.069Z,94397.30
2023-03-08T15:58:01.053Z,94395.91
2023-03-08T16:00:28.606Z,94396.16
2023-03-08T16:02:55.970Z,94399.47
2023-03-08T16:05:25.155Z,94403.41
2023-03-08T16:07:57.222Z,94401.00
2023-03-08T16:10:24.203Z,94400.66
2023-03-08T16:12:51.239Z,94398.14
2023-03-08T16:15:18.524Z,94396.31
2023-03-08T16:17:45.502Z,94394.80
2023-03-08T16:20:14.244Z,94393.58
2023-03-08T16:22:41.571Z,94392.35
2023-03-08T16:25:10.016Z,94399.45
2023-03-08T16:27:38.295Z,94404.88
2023-03-08T16:30:06.171Z,94406.70
2023-03-08T16:32:33.340Z,94405.91
2023-03-08T16:35:01.081Z,94407.97
2023-03-08T16:37:28.395Z,94409.23
2023-03-08T16:39:57.678Z,94408.56
2023-03-08T16:42:25.209Z,94408.79
2023-03-08T16:44:55.215Z,94412.30
2023-03-08T16:47:23.972Z,94421.77
2023-03-08T16:49:51.005Z,94425.44
2023-03-08T16:52:18.410Z,94429.56
2023-03-08T16:54:45.838Z,94434.35
2023-03-08T16:57:19.862Z,94436.91
2023-03-08T16:59:48.048Z,94437.85
2023-03-08T17:02:17.806Z,94436.18
2023-03-08T17:04:45.479Z,94431.80
2023-03-08T17:07:13.117Z,94430.86
2023-03-08T17:09:40.240Z,94436.63
2023-03-08T17:12:08.691Z,94437.71
2023-03-08T17:14:36.821Z,94439.39
2023-03-08T17:17:05.167Z,94443.31
2023-03-08T17:19:32.563Z,94449.88
2023-03-08T17:21:59.642Z,94451.95
2023-03-08T17:24:28.333Z,94457.29
2023-03-08T17:26:55.515Z,94461.70
2023-03-08T17:29:22.614Z,94466.41
2023-03-08T17:31:49.942Z,94474.38
2023-03-08T17:34:17.026Z,94481.96
2023-03-08T17:36:46.745Z,94487.64
2023-03-08T17:39:14.354Z,94496.98
2023-03-08T17:41:42.945Z,94505.02
2023-03-08T17:44:09.807Z,94507.73
2023-03-08T17:46:36.678Z,94516.73
2023-03-08T17:49:03.934Z,94521.40
2023-03-08T17:51:32.123Z,94520.89
2023-03-08T17:54:01.213Z,94518.30
2023-03-08T17:56:30.715Z,94520.23
2023-03-08T17:58:59.934Z,94519.65
2023-03-08T18:01:30.188Z,94514.95
2023-03-08T18:03:58.124Z,94524.45
2023-03-08T18:06:29.630Z,94533.41
2023-03-08T18:09:01.365Z,94540.63
2023-03-08T18:11:28.628Z,94539.60
2023-03-08T18:13:56.393Z,94541.02
2023-03-08T18:16:24.522Z,94542.77
2023-03-08T18:18:51.822Z,94547.77
2023-03-08T18:21:20.410Z,94545.37
2023-03-08T18:23:47.726Z,94550.77
2023-03-08T18:26:16.530Z,94547.42
2023-03-08T18:28:43.433Z,94545.73
2023-03-08T18:31:13.814Z,94548.66
2023-03-08T18:33:41.170Z,94545.48
2023-03-08T18:36:08.602Z,94543.80
2023-03-08T18:38:35.532Z,94540.24
2023-03-08T18:41:25.512Z,94536.61
2023-03-08T18:43:54.684Z,94537.63
2023-03-08T18:46:28.645Z,94536.88
2023-03-08T18:49:00.850Z,94534.19
2023-03-08T18:51:28.860Z,94534.43
2023-03-08T18:53:56.638Z,94533.56
2023-03-08T18:56:25.898Z,94536.38
2023-03-08T18:58:54.230Z,94536.23
2023-03-08T19:01:22.161Z,94542.73
2023-03-08T19:03:49.101Z,94544.36
2023-03-08T19:06:16.219Z,94547.61
2023-03-08T19:08:43.207Z,94543.85
2023-03-08T19:11:12.278Z,94544.95
2023-03-08T19:13:40.078Z,94540.92
2023-03-08T19:16:20.890Z,94544.63
2023-03-08T19:18:51.101Z,94553.38
2023-03-08T19:21:27.133Z,94555.84
2023-03-08T19:23:57.070Z,94558.30
2023-03-08T19:26:39.753Z,94558.55
2023-03-08T19:29:21.416Z,94562.46
2023-03-08T19:31:51.315Z,94564.29
2023-03-08T19:34:20.138Z,94564.92
2023-03-08T19:36:48.288Z,94566.32
2023-03-08T19:39:20.038Z,94561.64
2023-03-08T19:41:55.461Z,94563.23
2023-03-08T19:44:22.930Z,94569.54
2023-03-08T19:46:50.646Z,94571.23
2023-03-08T19:49:20.318Z,94573.17
2023-03-08T19:51:50.719Z,94575.66
2023-03-08T19:54:18.255Z,94582.12
2023-03-08T19:56:45.242Z,94585.90
2023-03-08T19:59:12.568Z,94584.19
2023-03-08T20:01:40.452Z,94585.63
2023-03-08T20:04:08.620Z,94581.48
2023-03-08T20:06:41.460Z,94586.98
2023-03-08T20:09:10.805Z,94590.47
2023-03-08T20:11:38.385Z,94595.61
2023-03-08T20:14:05.228Z,94600.34
2023-03-08T20:16:32.330Z,94604.22
2023-03-08T20:18:59.306Z,94604.28
2023-03-08T20:21:29.694Z,94607.86
2023-03-08T20:23:59.413Z,94603.56
2023-03-08T20:26:31.549Z,94599.17
2023-03-08T20:28:59.079Z,94597.28
2023-03-08T20:31:27.753Z,94603.66
2023-03-08T20:33:57.491Z,94610.52
2023-03-08T20:36:24.953Z,94613.20
2023-03-08T20:38:52.430Z,94614.34
2023-03-08T20:41:20.999Z,94611.73
2023-03-08T20:43:49.954Z,94610.40
2023-03-08T20:46:19.289Z,94607.33
2023-03-08T20:48:46.597Z,94606.75
2023-03-08T20:51:16.664Z,94605.86
2023-03-08T20:53:43.891Z,94601.00
2023-03-08T20:56:15.062Z,94600.31
2023-03-08T20:58:42.653Z,94601.40
2023-03-08T21:01:12.107Z,94601.85
2023-03-08T21:03:48.132Z,94596.52
2023-03-08T21:06:18.883Z,94592.84
2023-03-08T21:08:46.485Z,94591.74
2023-03-08T21:11:13.408Z,94592.20
2023-03-08T21:13:40.743Z,94589.52
2023-03-08T21:16:11.473Z,94593.29
2023-03-08T21:18:38.445Z,94593.65
2023-03-08T21:21:05.603Z,94591.62
2023-03-08T21:23:32.455Z,94588.54
2023-03-08T21:26:01.170Z,94595.60
2023-03-08T21:28:27.991Z,94601.11
2023-03-08T21:30:54.970Z,94596.44
2023-03-08T21:33:21.872Z,94594.69
2023-03-08T21:35:48.633Z,94596.72
2023-03-08T21:38:15.405Z,94592.30
2023-03-08T21:40:45.468Z,94594.23
2023-03-08T21:43:12.161Z,94589.10
2023-03-08T21:45:41.433Z,94583.73
2023-03-08T21:48:11.963Z,94579.58
2023-03-08T21:50:40.164Z,94582.61
2023-03-08T21:53:08.264Z,94584.60
2023-03-08T21:55:39.598Z,94582.29
2023-03-08T21:58:07.237Z,94587.73
2023-03-08T22:00:34.646Z,94584.92
2023-03-08T22:03:01.473Z,94583.71
2023-03-08T22:05:29.779Z,94582.79
2023-03-08T22:07:56.623Z,94579.61
2023-03-08T22:10:23.416Z,94578.65
2023-03-08T22:12:50.228Z,94581.77
2023-03-08T22:15:17.073Z,94581.65
2023-03-08T22:17:44.165Z,94583.30
2023-03-08T22:20:12.449Z,94580.83
2023-03-08T22:22:40.145Z,94579.81
2023-03-08T22:25:08.513Z,94577.02
2023-03-08T22:27:35.424Z,94575.52
2023-03-08T22:30:03.002Z,94579.36
2023-03-08T22:32:29.800Z,94581.55
2023-03-08T22:34:57.162Z,94582.92
2023-03-08T22:37:23.918Z,94580.16
2023-03-08T22:39:50.833Z,94580.24
2023-03-08T22:42:17.633Z,94580.27
2023-03-08T22:44:44.446Z,94581.33
2023-03-08T22:47:11.188Z,94580.73
2023-03-08T22:49:43.610Z,94574.92
2023-03-08T22:52:10.292Z,94574.63
2023-03-08T22:54:37.402Z,94569.10
2023-03-08T22:57:04.414Z,94567.69
2023-03-08T22:59:31.194Z,94566.21
2023-03-08T23:01:58.049Z,94576.67
2023-03-08T23:04:24.912Z,94571.27
2023-03-08T23:06:51.914Z,94563.42
2023-03-08T23:09:18.786Z,94555.20
2023-03-08T23:11:46.540Z,94557.39
2023-03-08T23:14:13.344Z,94559.75
2023-03-08T23:16:42.714Z,94565.73
2023-03-08T23:19:15.950Z,94562.27
2023-03-08T23:21:44.638Z,94560.17
2023-03-08T23:24:12.533Z,94558.52
2023-03-08T23:26:40.044Z,94557.94
2023-03-08T23:29:07.537Z,94560.39
2023-03-08T23:31:36.980Z,94562.98
2023-03-08T23:34:05.680Z,94567.64
2023-03-08T23:36:34.026Z,94572.20
2023-03-08T23:39:04.376Z,94572.17
2023-03-08T23:41:32.312Z,94565.21
2023-03-08T23:44:01.506Z,94554.70
2023-03-08T23:46:29.062Z,94568.77
2023-03-08T23:48:57.945Z,94565.31
2023-03-08T23:51:27.116Z,94556.98
2023-03-08T23:53:56.334Z,94557.54
2023-03-08T23:56:30.914Z,94556.55
2023-03-08T23:59:01.235Z,94558.92
